Time;durP1;ratioP1;P1;durP2;ratioP2;P2;SDS_P1;SDS_P2;PMS_P1;PMS_P2;Temp;Humidity;BMP_temperature;BMP_pressure;BME280_temperature;BME280_humidity;BME280_pressure;Samples;Min_cycle;Max_cycle;Signal;HPM_P1;HPM_P2
2022/07/28 00:00:49;;;;;;;;;;;;;;;;;;4969135;28;20677;-71
2022/07/28 00:03:17;;;;;;;;;;;;;;;;;;4965075;28;19934;-71
2022/07/28 00:05:44;;;;;;;;;;;;;;;;;;4965615;28;19926;-72
2022/07/28 00:08:11;;;;;;;;;;;;;;;;;;4972249;28;19930;-71
2022/07/28 00:10:39;;;;;;;;;;;;;;;;;;4963782;28;19989;-71
2022/07/28 00:13:06;;;;;;;;;;;;;;;;;;4967737;28;19934;-71
2022/07/28 00:15:33;;;;;;;;;;;;;;;;;;4967527;28;20112;-71
2022/07/28 00:18:01;;;;;;;;;;;;;;;;;;4968048;28;20032;-71
2022/07/28 00:20:29;;;;;;;;;;;;;;;;;;4967950;28;20005;-71
2022/07/28 00:22:57;;;;;;;;;;;;;;;;;;4967631;28;20108;-71
2022/07/28 00:25:24;;;;;;;;;;;;;;;;;;4967980;28;19935;-71
2022/07/28 00:27:52;;;;;;;;;;;;;;;;;;4964688;28;19934;-71
2022/07/28 00:30:19;;;;;;;;;;;;;;;;;;4950612;28;20227;-71
2022/07/28 00:32:46;;;;;;;;;;;;;;;;;;4968331;28;19926;-71
2022/07/28 00:35:14;;;;;;;;;;;;;;;;;;4963747;28;20443;-71
2022/07/28 00:37:41;;;;;;;;;;;;;;;;;;4965893;28;19926;-71
2022/07/28 00:40:09;;;;;;;;;;;;;;;;;;4949017;28;19930;-71
2022/07/28 00:42:36;;;;;;;;;;;;;;;;;;4968151;28;19940;-72
2022/07/28 00:45:03;;;;;;;;;;;;;;;;;;4967792;28;19930;-71
2022/07/28 00:47:31;;;;;;;;;;;;;;;;;;4967638;28;19952;-71
2022/07/28 00:49:59;;;;;;;;;;;;;;;;;;4966360;28;19926;-71
2022/07/28 00:52:26;;;;;;;;;;;;;;;;;;4967946;28;19936;-71
2022/07/28 00:54:54;;;;;;;;;;;;;;;;;;4965296;28;19932;-71
2022/07/28 00:57:21;;;;;;;;;;;;;;;;;;4966163;28;19949;-71
2022/07/28 00:59:49;;;;;;;;;;;;;;;;;;4967780;28;19930;-72
2022/07/28 01:02:16;;;;;;;;;;;;;;;;;;4950213;28;19930;-71
2022/07/28 01:04:43;;;;;;;;;;;;;;;;;;4967195;28;19934;-72
2022/07/28 01:07:11;;;;;;;;;;;;;;;;;;4967455;28;20459;-71
2022/07/28 01:09:38;;;;;;;;;;;;;;;;;;4965673;28;20331;-71
2022/07/28 01:12:06;;;;;;;;;;;;;;;;;;4966055;28;19940;-71
2022/07/28 01:14:33;;;;;;;;;;;;;;;;;;4965524;28;20001;-72
2022/07/28 01:17:00;;;;;;;;;;;;;;;;;;4966410;28;19937;-71
2022/07/28 01:19:27;;;;;;;;;;;;;;;;;;4966006;28;20057;-71
2022/07/28 01:21:55;;;;;;;;;;;;;;;;;;4963194;28;19926;-71
2022/07/28 01:24:22;;;;;;;;;;;;;;;;;;4965878;28;19930;-71
2022/07/28 01:26:50;;;;;;;;;;;;;;;;;;4963892;28;20032;-71
2022/07/28 01:29:17;;;;;;;;;;;;;;;;;;4948631;28;19962;-71
2022/07/28 01:31:44;;;;;;;;;;;;;;;;;;4965975;28;20141;-71
2022/07/28 01:34:12;;;;;;;;;;;;;;;;;;4966433;28;20378;-71
2022/07/28 01:36:39;;;;;;;;;;;;;;;;;;4959626;28;19930;-72
2022/07/28 01:39:06;;;;;;;;;;;;;;;;;;4966372;28;19930;-71
2022/07/28 01:41:34;;;;;;;;;;;;;;;;;;4949392;28;20412;-71
2022/07/28 01:44:01;;;;;;;;;;;;;;;;;;4946708;28;19942;-71
2022/07/28 01:46:28;;;;;;;;;;;;;;;;;;4966628;28;19930;-71
2022/07/28 01:48:55;;;;;;;;;;;;;;;;;;4966112;28;20016;-71
2022/07/28 01:51:23;;;;;;;;;;;;;;;;;;4963813;28;19930;-71
2022/07/28 01:53:50;;;;;;;;;;;;;;;;;;4965770;28;19926;-71
2022/07/28 01:56:17;;;;;;;;;;;;;;;;;;4950076;28;19930;-71
2022/07/28 01:58:45;;;;;;;;;;;;;;;;;;4963803;28;20779;-71
2022/07/28 02:01:12;;;;;;;;;;;;;;;;;;4966158;28;19926;-71
2022/07/28 02:03:39;;;;;;;;;;;;;;;;;;4966329;28;19930;-71
2022/07/28 02:06:06;;;;;;;;;;;;;;;;;;4966239;28;19926;-71
2022/07/28 02:08:34;;;;;;;;;;;;;;;;;;4965756;28;20294;-71
2022/07/28 02:13:47;;;;;;;;;;;;;;;;;;4965953;28;19982;-71
2022/07/28 02:16:14;;;;;;;;;;;;;;;;;;4964355;28;20304;-71
2022/07/28 02:18:42;;;;;;;;;;;;;;;;;;4965458;28;19930;-71
2022/07/28 02:21:09;;;;;;;;;;;;;;;;;;4966615;28;19932;-71
2022/07/28 02:23:36;;;;;;;;;;;;;;;;;;4965023;28;20028;-72
2022/07/28 02:26:03;;;;;;;;;;;;;;;;;;4965543;28;20276;-71
2022/07/28 02:28:31;;;;;;;;;;;;;;;;;;4963874;28;19977;-71
2022/07/28 02:30:58;;;;;;;;;;;;;;;;;;4963849;28;20275;-71
2022/07/28 02:33:25;;;;;;;;;;;;;;;;;;4965356;28;19926;-71
2022/07/28 02:36:13;;;;;;;;;;;;;;;;;;4948520;28;20308;-71
2022/07/28 02:38:40;;;;;;;;;;;;;;;;;;4966101;28;19926;-71
2022/07/28 02:41:07;;;;;;;;;;;;;;;;;;4965437;28;20378;-71
2022/07/28 02:43:34;;;;;;;;;;;;;;;;;;4948514;28;20417;-71
2022/07/28 02:46:16;;;;;;;;;;;;;;;;;;4963465;28;19930;-71
2022/07/28 02:48:44;;;;;;;;;;;;;;;;;;4949208;28;19951;-71
2022/07/28 02:51:11;;;;;;;;;;;;;;;;;;4965476;28;19930;-71
2022/07/28 02:53:38;;;;;;;;;;;;;;;;;;4947502;28;19926;-71
2022/07/28 02:56:05;;;;;;;;;;;;;;;;;;4965850;28;19933;-72
2022/07/28 02:58:33;;;;;;;;;;;;;;;;;;4964622;28;19930;-71
2022/07/28 03:01:00;;;;;;;;;;;;;;;;;;4966353;28;19954;-71
2022/07/28 03:03:27;;;;;;;;;;;;;;;;;;4965457;28;19930;-71
2022/07/28 03:05:55;;;;;;;;;;;;;;;;;;4947640;28;19926;-72
2022/07/28 03:08:22;;;;;;;;;;;;;;;;;;4966821;28;20021;-72
2022/07/28 03:10:49;;;;;;;;;;;;;;;;;;4966540;28;19930;-71
2022/07/28 03:13:20;;;;;;;;;;;;;;;;;;4948985;28;19926;-71
2022/07/28 03:15:50;;;;;;;;;;;;;;;;;;4971254;28;20013;-72
2022/07/28 03:18:20;;;;;;;;;;;;;;;;;;4971478;28;20121;-70
2022/07/28 03:20:48;;;;;;;;;;;;;;;;;;4967120;28;19934;-71
2022/07/28 03:23:15;;;;;;;;;;;;;;;;;;4969787;28;19926;-71
2022/07/28 03:25:42;;;;;;;;;;;;;;;;;;4969283;28;19930;-71
2022/07/28 03:28:13;;;;;;;;;;;;;;;;;;4966007;28;19930;-71
2022/07/28 03:30:41;;;;;;;;;;;;;;;;;;4973455;28;19930;-71
2022/07/28 03:33:08;;;;;;;;;;;;;;;;;;4968392;28;19934;-71
2022/07/28 03:35:35;;;;;;;;;;;;;;;;;;4968738;28;19926;-71
2022/07/28 03:38:03;;;;;;;;;;;;;;;;;;4967923;28;20105;-71
2022/07/28 03:40:30;;;;;;;;;;;;;;;;;;4963803;28;20396;-71
2022/07/28 03:42:57;;;;;;;;;;;;;;;;;;4966354;28;19930;-71
2022/07/28 03:45:24;;;;;;;;;;;;;;;;;;4967281;28;20111;-71
2022/07/28 03:47:52;;;;;;;;;;;;;;;;;;4958350;28;19926;-71
2022/07/28 03:50:19;;;;;;;;;;;;;;;;;;4966799;28;20414;-71
2022/07/28 03:52:46;;;;;;;;;;;;;;;;;;4944699;28;19964;-71
2022/07/28 03:55:14;;;;;;;;;;;;;;;;;;4959082;28;19930;-70
2022/07/28 03:57:41;;;;;;;;;;;;;;;;;;4965007;28;20240;-71
2022/07/28 04:00:08;;;;;;;;;;;;;;;;;;4963271;28;20154;-71
2022/07/28 04:02:42;;;;;;;;;;;;;;;;;;4952234;28;19930;-71
2022/07/28 04:05:10;;;;;;;;;;;;;;;;;;4960777;28;19934;-71
2022/07/28 04:07:38;;;;;;;;;;;;;;;;;;4963983;28;19937;-71
2022/07/28 04:10:05;;;;;;;;;;;;;;;;;;4956927;28;19929;-71
2022/07/28 04:12:32;;;;;;;;;;;;;;;;;;4951686;28;19926;-71
2022/07/28 04:15:00;;;;;;;;;;;;;;;;;;4966045;28;20673;-71
2022/07/28 04:17:27;;;;;;;;;;;;;;;;;;4966972;28;19936;-71
2022/07/28 04:19:54;;;;;;;;;;;;;;;;;;4967491;28;19965;-71
2022/07/28 04:22:22;;;;;;;;;;;;;;;;;;4968132;28;19937;-71
2022/07/28 04:24:49;;;;;;;;;;;;;;;;;;4964184;28;20378;-71
2022/07/28 04:27:16;;;;;;;;;;;;;;;;;;4967833;28;19937;-71
2022/07/28 04:29:43;;;;;;;;;;;;;;;;;;4950936;28;19927;-71
2022/07/28 04:32:11;;;;;;;;;;;;;;;;;;4967264;28;19937;-71
2022/07/28 04:34:38;;;;;;;;;;;;;;;;;;4968210;28;20175;-71
2022/07/28 04:37:05;;;;;;;;;;;;;;;;;;4966863;28;19940;-71
2022/07/28 04:39:34;;;;;;;;;;;;;;;;;;4962979;28;19937;-71
2022/07/28 04:42:01;;;;;;;;;;;;;;;;;;4961837;28;19937;-71
2022/07/28 04:44:28;;;;;;;;;;;;;;;;;;4964136;28;19981;-70
2022/07/28 04:46:55;;;;;;;;;;;;;;;;;;4946974;28;20401;-72
2022/07/28 04:49:23;;;;;;;;;;;;;;;;;;4966514;28;19929;-71
2022/07/28 04:51:51;;;;;;;;;;;;;;;;;;4949484;28;19930;-71
2022/07/28 04:54:18;;;;;;;;;;;;;;;;;;4962732;28;20457;-71
2022/07/28 04:56:51;;;;;;;;;;;;;;;;;;4963770;28;20390;-71
2022/07/28 04:59:18;;;;;;;;;;;;;;;;;;4967036;28;20411;-71
2022/07/28 05:01:46;;;;;;;;;;;;;;;;;;4979686;28;19949;-72
2022/07/28 05:04:13;;;;;;;;;;;;;;;;;;4967456;28;20323;-72
2022/07/28 05:06:41;;;;;;;;;;;;;;;;;;4963775;28;19925;-70
2022/07/28 05:09:08;;;;;;;;;;;;;;;;;;4967058;28;19937;-70
2022/07/28 05:11:35;;;;;;;;;;;;;;;;;;4947420;28;19930;-70
2022/07/28 05:14:03;;;;;;;;;;;;;;;;;;4966866;28;20397;-71
2022/07/28 05:16:31;;;;;;;;;;;;;;;;;;4963310;28;19959;-71
2022/07/28 05:18:59;;;;;;;;;;;;;;;;;;4966815;28;19985;-71
2022/07/28 05:21:26;;;;;;;;;;;;;;;;;;4966045;28;19930;-71
2022/07/28 05:23:53;;;;;;;;;;;;;;;;;;4985944;23;19934;-69
2022/07/28 05:26:20;;;;;;;;;;;;;;;;;;4966031;28;19930;-69
2022/07/28 05:28:48;;;;;;;;;;;;;;;;;;4963711;28;19926;-69
2022/07/28 05:31:15;;;;;;;;;;;;;;;;;;4950532;28;19941;-69
2022/07/28 05:33:42;;;;;;;;;;;;;;;;;;4947060;28;19930;-69
2022/07/28 05:36:10;;;;;;;;;;;;;;;;;;4947335;28;19950;-72
2022/07/28 05:38:37;;;;;;;;;;;;;;;;;;4945717;28;19937;-72
2022/07/28 05:41:05;;;;;;;;;;;;;;;;;;4943824;28;20017;-72
2022/07/28 05:43:36;;;;;;;;;;;;;;;;;;4943232;28;19930;-72
2022/07/28 05:46:03;;;;;;;;;;;;;;;;;;4943387;28;20037;-72
2022/07/28 05:48:30;;;;;;;;;;;;;;;;;;4946214;29;19930;-72
2022/07/28 05:50:58;;;;;;;;;;;;;;;;;;4947294;28;19930;-71
2022/07/28 05:53:25;;;;;;;;;;;;;;;;;;4948239;29;19930;-71
2022/07/28 05:55:52;;;;;;;;;;;;;;;;;;4934936;28;19927;-70
2022/07/28 05:58:27;;;;;;;;;;;;;;;;;;4941823;28;19970;-70
2022/07/28 06:00:54;;;;;;;;;;;;;;;;;;4944274;28;20323;-71
2022/07/28 06:03:21;;;;;;;;;;;;;;;;;;4932053;29;20298;-70
2022/07/28 06:05:49;;;;;;;;;;;;;;;;;;4946371;29;19934;-70
2022/07/28 06:08:25;;;;;;;;;;;;;;;;;;4945477;28;19981;-71
2022/07/28 06:10:58;;;;;;;;;;;;;;;;;;4948187;28;19966;-70
2022/07/28 06:13:26;;;;;;;;;;;;;;;;;;4943845;29;19930;-70
2022/07/28 06:15:53;;;;;;;;;;;;;;;;;;4943717;29;19930;-71
2022/07/28 06:18:23;;;;;;;;;;;;;;;;;;4940175;28;20362;-70
2022/07/28 06:20:51;;;;;;;;;;;;;;;;;;4934118;29;19931;-71
2022/07/28 06:23:22;;;;;;;;;;;;;;;;;;4947659;29;19953;-70
2022/07/28 06:25:49;;;;;;;;;;;;;;;;;;4933763;28;19985;-70
2022/07/28 06:28:19;;;;;;;;;;;;;;;;;;4937112;29;19941;-70
2022/07/28 06:30:47;;;;;;;;;;;;;;;;;;4943487;29;19937;-71
2022/07/28 06:33:14;;;;;;;;;;;;;;;;;;4928644;29;19933;-71
2022/07/28 06:35:43;;;;;;;;;;;;;;;;;;4934764;29;20382;-71
2022/07/28 06:38:19;;;;;;;;;;;;;;;;;;4946078;28;19930;-71
2022/07/28 06:40:46;;;;;;;;;;;;;;;;;;4936598;28;19927;-71
2022/07/28 06:43:13;;;;;;;;;;;;;;;;;;4928129;29;20025;-71
2022/07/28 06:45:41;;;;;;;;;;;;;;;;;;4927031;29;19969;-71
2022/07/28 06:48:08;;;;;;;;;;;;;;;;;;4927956;29;19930;-71
2022/07/28 06:50:38;;;;;;;;;;;;;;;;;;4926810;29;19937;-71
2022/07/28 06:53:05;;;;;;;;;;;;;;;;;;4944570;29;20409;-71
2022/07/28 06:55:32;;;;;;;;;;;;;;;;;;4946167;28;19930;-70
2022/07/28 06:58:01;;;;;;;;;;;;;;;;;;4947248;29;20229;-70
2022/07/28 07:00:29;;;;;;;;;;;;;;;;;;4945914;29;20394;-71
2022/07/28 07:02:56;;;;;;;;;;;;;;;;;;4941584;29;19930;-71
2022/07/28 07:05:24;;;;;;;;;;;;;;;;;;4930987;28;19938;-70
2022/07/28 07:07:51;;;;;;;;;;;;;;;;;;4946985;29;20028;-71
2022/07/28 07:10:19;;;;;;;;;;;;;;;;;;4947951;28;19930;-70
2022/07/28 07:12:46;;;;;;;;;;;;;;;;;;4947579;28;19931;-71
2022/07/28 07:15:13;;;;;;;;;;;;;;;;;;4944001;29;19941;-70
2022/07/28 07:17:41;;;;;;;;;;;;;;;;;;4926736;29;19930;-70
2022/07/28 07:20:08;;;;;;;;;;;;;;;;;;4935910;29;19930;-70
2022/07/28 07:22:35;;;;;;;;;;;;;;;;;;4945102;28;19927;-70
2022/07/28 07:25:03;;;;;;;;;;;;;;;;;;4939032;28;20399;-70
2022/07/28 07:27:30;;;;;;;;;;;;;;;;;;4938748;28;19927;-70
2022/07/28 07:29:57;;;;;;;;;;;;;;;;;;4939539;28;19938;-70
2022/07/28 07:32:24;;;;;;;;;;;;;;;;;;4940089;28;19940;-71
2022/07/28 07:34:51;;;;;;;;;;;;;;;;;;4945677;28;19930;-70
2022/07/28 07:37:20;;;;;;;;;;;;;;;;;;4948259;28;19933;-72
2022/07/28 07:39:47;;;;;;;;;;;;;;;;;;4949888;28;19973;-70
2022/07/28 07:42:14;;;;;;;;;;;;;;;;;;4942105;28;19982;-71
2022/07/28 07:44:42;;;;;;;;;;;;;;;;;;4950279;28;20302;-71
2022/07/28 07:47:09;;;;;;;;;;;;;;;;;;4940028;28;20021;-71
2022/07/28 07:49:36;;;;;;;;;;;;;;;;;;4946281;28;19935;-70
2022/07/28 07:52:11;;;;;;;;;;;;;;;;;;4946602;28;20524;-71
2022/07/28 07:54:39;;;;;;;;;;;;;;;;;;4946991;28;20696;-70
2022/07/28 07:57:06;;;;;;;;;;;;;;;;;;4934032;29;20030;-70
2022/07/28 07:59:33;;;;;;;;;;;;;;;;;;4942056;28;20133;-71
2022/07/28 08:02:00;;;;;;;;;;;;;;;;;;4946367;29;19966;-71
2022/07/28 08:04:28;;;;;;;;;;;;;;;;;;4956259;28;19952;-71
2022/07/28 08:06:55;;;;;;;;;;;;;;;;;;4953089;28;19926;-71
2022/07/28 08:09:22;;;;;;;;;;;;;;;;;;4936093;28;20413;-71
2022/07/28 08:11:50;;;;;;;;;;;;;;;;;;4944871;28;20041;-70
2022/07/28 08:14:17;;;;;;;;;;;;;;;;;;4945312;28;19953;-71
2022/07/28 08:16:45;;;;;;;;;;;;;;;;;;4940392;28;20025;-71
2022/07/28 08:19:12;;;;;;;;;;;;;;;;;;4938421;28;19927;-71
2022/07/28 08:21:39;;;;;;;;;;;;;;;;;;4948486;28;19977;-71
2022/07/28 08:24:06;;;;;;;;;;;;;;;;;;4945554;28;19938;-71
2022/07/28 08:26:33;;;;;;;;;;;;;;;;;;4945362;28;19994;-72
2022/07/28 08:29:01;;;;;;;;;;;;;;;;;;4934527;28;19926;-71
2022/07/28 08:31:28;;;;;;;;;;;;;;;;;;4932750;28;20050;-71
2022/07/28 08:33:57;;;;;;;;;;;;;;;;;;4947986;28;19930;-70
2022/07/28 08:36:24;;;;;;;;;;;;;;;;;;4940190;28;19931;-72
2022/07/28 08:38:51;;;;;;;;;;;;;;;;;;4930102;28;20466;-70
2022/07/28 08:41:19;;;;;;;;;;;;;;;;;;4939927;29;19927;-71
2022/07/28 08:43:46;;;;;;;;;;;;;;;;;;4942977;28;19984;-71
2022/07/28 08:46:14;;;;;;;;;;;;;;;;;;4937734;28;20457;-68
2022/07/28 08:48:42;;;;;;;;;;;;;;;;;;4945727;29;20302;-69
2022/07/28 08:51:10;;;;;;;;;;;;;;;;;;4949843;28;19930;-70
2022/07/28 08:53:37;;;;;;;;;;;;;;;;;;4937775;29;19989;-69
2022/07/28 08:56:04;;;;;;;;;;;;;;;;;;4939211;29;19934;-70
2022/07/28 08:58:31;;;;;;;;;;;;;;;;;;4949231;28;19949;-70
2022/07/28 09:00:59;;;;;;;;;;;;;;;;;;4937917;28;19931;-71
2022/07/28 09:03:26;;;;;;;;;;;;;;;;;;4938666;28;19937;-69
2022/07/28 09:05:53;;;;;;;;;;;;;;;;;;4942863;28;19930;-70
2022/07/28 09:08:21;;;;;;;;;;;;;;;;;;4941687;29;19931;-70
2022/07/28 09:10:48;;;;;;;;;;;;;;;;;;4944351;28;19926;-71
2022/07/28 09:13:15;;;;;;;;;;;;;;;;;;4950157;28;20416;-70
2022/07/28 09:15:44;;;;;;;;;;;;;;;;;;4946381;28;19965;-70
2022/07/28 09:18:12;;;;;;;;;;;;;;;;;;4949895;28;19930;-70
2022/07/28 09:20:39;;;;;;;;;;;;;;;;;;4949588;28;20065;-71
2022/07/28 09:23:07;;;;;;;;;;;;;;;;;;4947730;29;19973;-70
2022/07/28 09:25:54;;;;;;;;;;;;;;;;;;4934429;28;20013;-71
2022/07/28 09:28:22;;;;;;;;;;;;;;;;;;4949574;28;19931;-72
2022/07/28 09:30:49;;;;;;;;;;;;;;;;;;4949929;29;19985;-71
2022/07/28 09:33:20;;;;;;;;;;;;;;;;;;4949302;28;20302;-71
2022/07/28 09:36:08;;;;;;;;;;;;;;;;;;4949104;29;20400;-72
2022/07/28 09:38:35;;;;;;;;;;;;;;;;;;4941469;28;19927;-69
2022/07/28 09:41:02;;;;;;;;;;;;;;;;;;4946021;28;19934;-69
2022/07/28 09:43:29;;;;;;;;;;;;;;;;;;4949249;28;19930;-70
2022/07/28 09:45:57;;;;;;;;;;;;;;;;;;4956243;28;20024;-68
2022/07/28 09:48:24;;;;;;;;;;;;;;;;;;4968398;28;20025;-72
2022/07/28 09:50:52;;;;;;;;;;;;;;;;;;4968696;28;19961;-70
2022/07/28 09:53:19;;;;;;;;;;;;;;;;;;4968995;28;20509;-72
2022/07/28 09:55:46;;;;;;;;;;;;;;;;;;4968762;28;19973;-71
2022/07/28 09:58:13;;;;;;;;;;;;;;;;;;4959979;28;19965;-71
2022/07/28 10:00:41;;;;;;;;;;;;;;;;;;4951468;28;19930;-71
2022/07/28 10:03:08;;;;;;;;;;;;;;;;;;4947836;29;20302;-71
2022/07/28 10:05:36;;;;;;;;;;;;;;;;;;4948075;28;19930;-70
2022/07/28 10:08:03;;;;;;;;;;;;;;;;;;4950474;28;19946;-70
2022/07/28 10:10:30;;;;;;;;;;;;;;;;;;4947139;28;20404;-72
2022/07/28 10:12:57;;;;;;;;;;;;;;;;;;4948307;29;19930;-70
2022/07/28 10:18:12;;;;;;;;;;;;;;;;;;4948007;28;19926;-70
2022/07/28 10:20:40;;;;;;;;;;;;;;;;;;4948702;29;20021;-70
2022/07/28 10:23:07;;;;;;;;;;;;;;;;;;4948258;28;19931;-72
2022/07/28 10:25:35;;;;;;;;;;;;;;;;;;4947290;28;19937;-72
2022/07/28 10:28:02;;;;;;;;;;;;;;;;;;4948965;28;19930;-70
2022/07/28 10:30:32;;;;;;;;;;;;;;;;;;4943308;28;19927;-70
2022/07/28 10:33:00;;;;;;;;;;;;;;;;;;4947708;28;19938;-70
2022/07/28 10:35:27;;;;;;;;;;;;;;;;;;4928614;28;19953;-70
2022/07/28 10:37:54;;;;;;;;;;;;;;;;;;4939637;29;19935;-71
2022/07/28 10:40:22;;;;;;;;;;;;;;;;;;4942932;29;19937;-70
2022/07/28 10:42:49;;;;;;;;;;;;;;;;;;4945500;28;19966;-71
2022/07/28 10:45:16;;;;;;;;;;;;;;;;;;4937550;28;19931;-71
2022/07/28 10:47:43;;;;;;;;;;;;;;;;;;4948532;28;19926;-70
2022/07/28 10:50:11;;;;;;;;;;;;;;;;;;4948791;28;20424;-71
2022/07/28 10:52:38;;;;;;;;;;;;;;;;;;4948393;29;20390;-72
2022/07/28 10:55:15;;;;;;;;;;;;;;;;;;4933778;28;20029;-70
2022/07/28 10:57:42;;;;;;;;;;;;;;;;;;4944626;28;20027;-70
2022/07/28 11:00:10;;;;;;;;;;;;;;;;;;4941734;28;19986;-71
2022/07/28 11:02:39;;;;;;;;;;;;;;;;;;4948353;28;19930;-71
2022/07/28 11:05:07;;;;;;;;;;;;;;;;;;4948989;28;19927;-71
2022/07/28 11:07:34;;;;;;;;;;;;;;;;;;4949197;28;20009;-71
2022/07/28 11:10:01;;;;;;;;;;;;;;;;;;4951817;28;19930;-71
2022/07/28 11:12:28;;;;;;;;;;;;;;;;;;4964980;28;19926;-70
2022/07/28 11:14:56;;;;;;;;;;;;;;;;;;4948978;28;19934;-70
2022/07/28 11:17:23;;;;;;;;;;;;;;;;;;4946302;29;20354;-71
2022/07/28 11:19:59;;;;;;;;;;;;;;;;;;4948392;28;20287;-71
2022/07/28 11:22:47;;;;;;;;;;;;;;;;;;4949085;28;20407;-70
2022/07/28 11:25:14;;;;;;;;;;;;;;;;;;5110034;23;20027;-86
2022/07/28 11:27:55;;;;;;;;;;;;;;;;;;4977515;28;19975;-86
2022/07/28 11:30:40;;;;;;;;;;;;;;;;;;4939917;28;19934;-85
2022/07/28 11:33:30;;;;;;;;;;;;;;;;;;4969627;28;19926;-86
2022/07/28 11:35:58;;;;;;;;;;;;;;;;;;4968835;28;20550;-86
2022/07/28 11:38:56;;;;;;;;;;;;;;;;;;4970501;28;20021;-85
2022/07/28 11:41:36;;;;;;;;;;;;;;;;;;4955233;28;19981;-85
2022/07/28 11:44:06;;;;;;;;;;;;;;;;;;4937518;29;19930;-85
2022/07/28 11:46:35;;;;;;;;;;;;;;;;;;4955262;28;19992;-85
2022/07/28 11:49:06;;;;;;;;;;;;;;;;;;4969701;28;19935;-85
2022/07/28 11:51:34;;;;;;;;;;;;;;;;;;4973347;28;20406;-84
2022/07/28 11:54:21;;;;;;;;;;;;;;;;;;4971726;28;19929;-84
2022/07/28 11:56:48;;;;;;;;;;;;;;;;;;4971672;28;19926;-85
2022/07/28 11:59:16;;;;;;;;;;;;;;;;;;4973885;28;19930;-85
2022/07/28 12:01:46;;;;;;;;;;;;;;;;;;4977263;28;19926;-85
2022/07/28 12:04:14;;;;;;;;;;;;;;;;;;4976773;28;19954;-86
2022/07/28 12:06:55;;;;;;;;;;;;;;;;;;4961535;28;19930;-86
2022/07/28 12:09:22;;;;;;;;;;;;;;;;;;4967089;28;19930;-84
2022/07/28 12:11:54;;;;;;;;;;;;;;;;;;4964940;28;20443;-86
2022/07/28 12:14:30;;;;;;;;;;;;;;;;;;4971453;28;19927;-85
2022/07/28 12:17:02;;;;;;;;;;;;;;;;;;4983385;28;20033;-83
2022/07/28 12:19:33;;;;;;;;;;;;;;;;;;4973655;28;19994;-86
2022/07/28 12:22:01;;;;;;;;;;;;;;;;;;4955709;28;19937;-85
2022/07/28 12:24:28;;;;;;;;;;;;;;;;;;4969350;28;20561;-85
2022/07/28 12:26:58;;;;;;;;;;;;;;;;;;4960028;28;19932;-85
2022/07/28 12:29:30;;;;;;;;;;;;;;;;;;4939056;28;20365;-85
2022/07/28 12:32:03;;;;;;;;;;;;;;;;;;4961178;28;19934;-86
2022/07/28 12:34:45;;;;;;;;;;;;;;;;;;4971397;28;19930;-85
2022/07/28 12:37:12;;;;;;;;;;;;;;;;;;4970770;28;19937;-86
2022/07/28 12:39:41;;;;;;;;;;;;;;;;;;4944460;28;20341;-85
2022/07/28 12:42:12;;;;;;;;;;;;;;;;;;4969858;28;19930;-86
2022/07/28 12:44:40;;;;;;;;;;;;;;;;;;4952853;28;19985;-85
2022/07/28 12:47:08;;;;;;;;;;;;;;;;;;4955166;28;19930;-86
2022/07/28 12:49:35;;;;;;;;;;;;;;;;;;4958234;28;19985;-85
2022/07/28 12:52:03;;;;;;;;;;;;;;;;;;4941120;28;19934;-85
2022/07/28 12:54:30;;;;;;;;;;;;;;;;;;4955624;28;19960;-85
2022/07/28 12:56:57;;;;;;;;;;;;;;;;;;4952716;28;19965;-84
2022/07/28 12:59:25;;;;;;;;;;;;;;;;;;4972686;28;20006;-84
2022/07/28 13:01:52;;;;;;;;;;;;;;;;;;4955270;28;19985;-85
2022/07/28 13:04:20;;;;;;;;;;;;;;;;;;4982809;28;19938;-85
2022/07/28 13:06:47;;;;;;;;;;;;;;;;;;4983956;28;19933;-84
2022/07/28 13:09:14;;;;;;;;;;;;;;;;;;4968836;28;20349;-84
2022/07/28 13:11:42;;;;;;;;;;;;;;;;;;4966444;28;19930;-85
2022/07/28 13:14:13;;;;;;;;;;;;;;;;;;4967556;28;19926;-85
2022/07/28 13:16:42;;;;;;;;;;;;;;;;;;4966024;28;19930;-85
2022/07/28 13:19:12;;;;;;;;;;;;;;;;;;4967348;28;19954;-85
2022/07/28 13:21:43;;;;;;;;;;;;;;;;;;4953601;28;19977;-85
2022/07/28 13:24:23;;;;;;;;;;;;;;;;;;4951250;28;20032;-85
2022/07/28 13:26:51;;;;;;;;;;;;;;;;;;4948399;28;21870;-86
2022/07/28 13:29:18;;;;;;;;;;;;;;;;;;4930135;28;20032;-85
2022/07/28 13:31:45;;;;;;;;;;;;;;;;;;4963737;28;20382;-86
2022/07/28 13:34:15;;;;;;;;;;;;;;;;;;4950545;28;19934;-86
2022/07/28 13:36:43;;;;;;;;;;;;;;;;;;4967543;28;19953;-86
2022/07/28 13:39:10;;;;;;;;;;;;;;;;;;4967687;28;20452;-86
2022/07/28 13:41:38;;;;;;;;;;;;;;;;;;4966629;28;20093;-86
2022/07/28 13:44:23;;;;;;;;;;;;;;;;;;4936026;28;19934;-86
2022/07/28 13:46:54;;;;;;;;;;;;;;;;;;4967878;28;20024;-86
2022/07/28 13:49:30;;;;;;;;;;;;;;;;;;4967649;28;19933;-86
2022/07/28 13:51:58;;;;;;;;;;;;;;;;;;4963445;28;20317;-86
2022/07/28 13:54:26;;;;;;;;;;;;;;;;;;4987082;23;19930;-71
2022/07/28 13:56:53;;;;;;;;;;;;;;;;;;4958163;28;19927;-73
2022/07/28 13:59:36;;;;;;;;;;;;;;;;;;4952663;28;19966;-72
2022/07/28 14:02:04;;;;;;;;;;;;;;;;;;4958578;28;20312;-71
2022/07/28 14:04:31;;;;;;;;;;;;;;;;;;4942792;28;20080;-72
2022/07/28 14:06:58;;;;;;;;;;;;;;;;;;4958249;28;20013;-71
2022/07/28 14:09:25;;;;;;;;;;;;;;;;;;4961173;28;19948;-72
2022/07/28 14:11:53;;;;;;;;;;;;;;;;;;4939156;28;20424;-71
2022/07/28 14:14:20;;;;;;;;;;;;;;;;;;4950757;28;20417;-72
2022/07/28 14:16:50;;;;;;;;;;;;;;;;;;4957106;28;19933;-72
2022/07/28 14:19:17;;;;;;;;;;;;;;;;;;4960311;28;19930;-71
2022/07/28 14:21:49;;;;;;;;;;;;;;;;;;4957551;28;20353;-71
2022/07/28 14:24:17;;;;;;;;;;;;;;;;;;4963356;28;19930;-72
2022/07/28 14:26:44;;;;;;;;;;;;;;;;;;4947685;28;19930;-72
2022/07/28 14:29:11;;;;;;;;;;;;;;;;;;4957366;28;19934;-71
2022/07/28 14:31:41;;;;;;;;;;;;;;;;;;4958533;28;19931;-72
2022/07/28 14:34:09;;;;;;;;;;;;;;;;;;4962290;28;20393;-72
2022/07/28 14:36:36;;;;;;;;;;;;;;;;;;4945763;28;19969;-72
2022/07/28 14:39:03;;;;;;;;;;;;;;;;;;4957800;28;20479;-72
2022/07/28 14:41:35;;;;;;;;;;;;;;;;;;4958327;28;20346;-72
2022/07/28 14:44:03;;;;;;;;;;;;;;;;;;4956608;28;20402;-72
2022/07/28 14:46:30;;;;;;;;;;;;;;;;;;4958434;28;19993;-72
2022/07/28 14:48:57;;;;;;;;;;;;;;;;;;4941417;28;19961;-72
2022/07/28 14:51:25;;;;;;;;;;;;;;;;;;4964096;28;19949;-73
2022/07/28 14:53:54;;;;;;;;;;;;;;;;;;4961838;28;19931;-72
2022/07/28 14:56:21;;;;;;;;;;;;;;;;;;4959180;28;19969;-71
2022/07/28 14:58:48;;;;;;;;;;;;;;;;;;4945845;28;19934;-69
2022/07/28 15:01:16;;;;;;;;;;;;;;;;;;4959199;28;19934;-70
2022/07/28 15:03:43;;;;;;;;;;;;;;;;;;4961826;28;19934;-72
2022/07/28 15:06:11;;;;;;;;;;;;;;;;;;4960352;28;19965;-72
2022/07/28 15:08:38;;;;;;;;;;;;;;;;;;4954229;28;19934;-71
2022/07/28 15:11:05;;;;;;;;;;;;;;;;;;4955587;28;19930;-72
2022/07/28 15:13:33;;;;;;;;;;;;;;;;;;4952478;28;19981;-70
2022/07/28 15:16:00;;;;;;;;;;;;;;;;;;4946931;28;20313;-71
2022/07/28 15:18:27;;;;;;;;;;;;;;;;;;4957759;28;20017;-71
2022/07/28 15:20:55;;;;;;;;;;;;;;;;;;4965747;28;19969;-72
2022/07/28 15:23:23;;;;;;;;;;;;;;;;;;4967711;28;19933;-72
2022/07/28 15:25:51;;;;;;;;;;;;;;;;;;4967333;28;19934;-72
2022/07/28 15:28:19;;;;;;;;;;;;;;;;;;4967896;28;19930;-72
2022/07/28 15:30:53;;;;;;;;;;;;;;;;;;4969778;28;19952;-71
2022/07/28 15:33:20;;;;;;;;;;;;;;;;;;4955641;28;19926;-71
2022/07/28 15:35:49;;;;;;;;;;;;;;;;;;4969002;28;19926;-71
2022/07/28 15:38:24;;;;;;;;;;;;;;;;;;4969080;28;20316;-71
2022/07/28 15:40:52;;;;;;;;;;;;;;;;;;4970450;28;19958;-71
2022/07/28 15:43:19;;;;;;;;;;;;;;;;;;4949715;28;20241;-71
2022/07/28 15:45:49;;;;;;;;;;;;;;;;;;4968745;28;19953;-71
2022/07/28 15:48:17;;;;;;;;;;;;;;;;;;4948739;28;19954;-70
2022/07/28 15:50:47;;;;;;;;;;;;;;;;;;4968153;28;20724;-71
2022/07/28 15:53:15;;;;;;;;;;;;;;;;;;4951206;28;20354;-74
2022/07/28 15:55:42;;;;;;;;;;;;;;;;;;4969537;28;19930;-74
2022/07/28 15:58:15;;;;;;;;;;;;;;;;;;4952355;28;19937;-75
2022/07/28 16:00:42;;;;;;;;;;;;;;;;;;4950426;28;20325;-75
2022/07/28 16:03:10;;;;;;;;;;;;;;;;;;4974369;28;19936;-73
2022/07/28 16:05:37;;;;;;;;;;;;;;;;;;4968293;28;20357;-74
2022/07/28 16:08:05;;;;;;;;;;;;;;;;;;4969393;28;19933;-75
2022/07/28 16:10:32;;;;;;;;;;;;;;;;;;4969966;28;20041;-73
2022/07/28 16:13:00;;;;;;;;;;;;;;;;;;4969605;28;19973;-73
2022/07/28 16:15:27;;;;;;;;;;;;;;;;;;4967547;28;19962;-75
2022/07/28 16:17:55;;;;;;;;;;;;;;;;;;4969191;28;19934;-75
2022/07/28 16:20:23;;;;;;;;;;;;;;;;;;4969375;28;19961;-73
2022/07/28 16:22:50;;;;;;;;;;;;;;;;;;4968312;28;19926;-75
2022/07/28 16:25:19;;;;;;;;;;;;;;;;;;4965439;28;19977;-74
2022/07/28 16:27:46;;;;;;;;;;;;;;;;;;4969256;28;19930;-75
2022/07/28 16:30:14;;;;;;;;;;;;;;;;;;4953835;28;19929;-72
2022/07/28 16:32:41;;;;;;;;;;;;;;;;;;4969864;28;19984;-75
2022/07/28 16:35:08;;;;;;;;;;;;;;;;;;4969151;28;19926;-77
2022/07/28 16:37:35;;;;;;;;;;;;;;;;;;4951710;28;19941;-73
2022/07/28 16:40:03;;;;;;;;;;;;;;;;;;4968577;28;19932;-73
2022/07/28 16:42:30;;;;;;;;;;;;;;;;;;4969138;28;19930;-74
2022/07/28 16:44:57;;;;;;;;;;;;;;;;;;4959198;28;20445;-74
2022/07/28 16:47:25;;;;;;;;;;;;;;;;;;4963807;28;19930;-77
2022/07/28 16:49:52;;;;;;;;;;;;;;;;;;4967082;28;19930;-74
2022/07/28 16:52:19;;;;;;;;;;;;;;;;;;4959842;28;20020;-76
2022/07/28 16:54:46;;;;;;;;;;;;;;;;;;4964982;28;19933;-73
2022/07/28 16:57:14;;;;;;;;;;;;;;;;;;4958799;28;19930;-76
2022/07/28 16:59:41;;;;;;;;;;;;;;;;;;4960181;28;19934;-75